NWS Home NWS Lubbock West Texas Mesonet Latest Conditions as of 0914 PM, Tue Feb 18, 2020

Latest   N   C   S   Daily Sum   3hrΔ   24hrΔ   Soil Data 
Site Map   24hr Precip   72hr Precip   Google Plot


Station Time of Last Temp Dew Pt. RH Wind Direction Wind Speed Wind Gust Max Wind Max Temp Min Temp Max RH Min RH Altimeter 1HR Rain Today's Rain Solar Rad Wind ChillRFTI
Abernathy 5ENE  09:10 PM 35 24 62% E78 30 mph 46° @ 1015 AM 51 32 91 40 30.30" 0 0 0 29 0
Adrian 6WSW  09:10 PM 36 22 57% E1214 28 mph 53° @ 0506 AM 42 34 79 45 30.30" 0 0 0   0
Aiken 3WSW  09:10 PM 30 21 68% NE89 27 mph 47° @ 0914 AM 50 30 95 37 30.32" 0 0 0 22 0
Amarillo 15NNW   09:10 PM 36 22 55% NE77 26 mph 34° @ 0358 AM 47 36 74 37 30.33" 0 0 0   0
Amarillo 7SSE  09:10 PM 34 21 59% NE57 24 mph 26° @ 0500 AM 47 32 75 37 30.33" 0 0 0 29 0
Amarillo 9NNE  09:10 PM 36 22 56% E45 22 mph 34° @ 0753 AM 46 34 74 35 30.33" 0 0 0   0
Amherst 1NE  09:10 PM 33 25 74% NE67 27 mph 37° @ 0920 AM 49 33 94 42 30.29" 0 0 0 27 0
Andrews 2E  09:10 PM 43 31 64% NE68 29 mph 31° @ 0930 AM 53 40 96 43 30.27" 0 0 0   0
Anton 6SSW  09:10 PM 37 24 61% NE910 28 mph 41° @ 1000 AM 52 33 94 39 30.29" 0 0 0   0
Aspermont 3NE  09:10 PM 46 32 60% NE812 33 mph 16° @ 0740 AM 56 43 98 42 30.31" 0 0 0   0
Big Bend NP - Castolon  09:10 PM 61 41 46% W1112 23 mph 345° @ 0336 PM 83 61 46 11 30.11" 0 0 0   0
Big Bend NP - Persimmon Gap  09:10 PM 53 36 53% NE2126 35 mph 36° @ 0651 PM 72 53 58 10 30.21" 0 0 0   0
Big Lake 1WNW  09:10 PM 47 35 63% NE913 30 mph 17° @ 0938 AM 60 45 96 44 30.25" 0 0 0   0
Bootleg 11WNW  09:10 PM 37 25 62% SE55 24 mph 30° @ 0537 AM 41 33 100 49 30.31" 0 0 0   0
Boys Ranch 1WSW  09:10 PM 37 21 51% E45 24 mph 55° @ 0416 AM 47 37 71 36 30.34" 0 0 0   0
Brownfield 2S  09:10 PM 39 29 66% E78 34 mph 43° @ 0930 AM 52 37 91 42 30.29" 0 0 0   0
Canadian 6E  09:10 PM 31 19 61% NE1010 27 mph 26° @ 0108 AM 46 30 74 32 30.33" 0 0 0 23 0
Caprock Canyons State Park  09:10 PM 38 23 55% N35 22 mph 358° @ 0231 PM 51 37 82 33 30.34" 0 0 0   0
Childress 2NNE  09:10 PM 39 22 51% NE912 26 mph 4° @ 0925 AM 55 39 84 30 30.34" 0 0 0   0
Clarendon 2WSW  09:10 PM 31 22 71% NE56 28 mph 17° @ 0835 AM 50 31 82 33 30.33" 0 0 0 26 0
Claude 12SW  09:10 PM 35 21 58% NE1112 26 mph 35° @ 0140 AM 47 33 80 37 30.32" 0 0 0 27 0
Clyde 2WNW  09:10 PM 47 34 60% NE1519 30 mph 22° @ 0948 AM 54 43 100 48 30.27" 0 0 0   0
Colorado City 5NW  09:10 PM 43 32 64% NE77 35 mph 38° @ 1018 AM 54 43 92 43 30.29" 0 0 0   0
Comanche Springs  09:10 PM 43 26 51% NE1013 32 mph 12° @ 0652 AM 56 41 99 36 30.33" 0 0 0   0
Coyanosa 2N  09:10 PM 47 35 63% E33 24 mph 1° @ 1033 AM 60 47 84 40 30.26" 0 0 0   0
Crane 1NNW   09:10 PM 48 36 62% E56 32 mph 41° @ 1025 AM 56 46 91 49 30.26" 0 0 0   0
Crowell 1E  09:10 PM 41 29 63% NE89 34 mph 26° @ 0509 AM 56 41 90 40 30.34" 0 0 0   0
Dell City  09:10 PM 46 33 60% W56 24 mph 24° @ 0939 AM 59 40 72 35 30.22" 0 0 0   0
Denver City 7WNW  09:10 PM 38 29 68% E79 29 mph 47° @ 0930 AM 51 36 100 42 30.26" 0 0 0   0
Dimmitt 2NE  09:10 PM 37 26 63% E912 26 mph 31° @ 0635 AM 44 33 94 49 30.30" 0 0 0   0
Doole 3WNW  09:10 PM 49 35 60% N56 29 mph 2° @ 1008 AM 54 49 86 48 30.25" 0 0 0   0
Dora NM 2SW  09:10 PM 35 26 69% E910 24 mph 45° @ 0645 AM 47 33 100 47 30.27" 0 0 0 28 0
Dozier 3W  09:10 PM 35 22 58% N89 26 mph 4° @ 0844 AM 52 35 79 31 30.36" 0 0 0 29 0
Earth 9WSW  09:10 PM 34 25 70% NE67 28 mph 44° @ 0958 AM 48 33 97 42 30.31" 0 0 0 28 0
Endee NM 2SW  09:10 PM 40 25 54% SE911 24 mph 37° @ 0528 AM 44 36 69 42 30.30" 0 0 0   0
Estelline 3SSE  09:10 PM 38 22 52% NE67 27 mph 32° @ 0607 AM 56 38 86 28 30.34" 0 0 0   0
Floydada 2NNE  09:10 PM 33 22 65% NE910 33 mph 23° @ 0900 AM 51 32 97 34 30.31" 0 0 0 26 0
Fluvanna 3WNW  09:10 PM 41 30 66% NE68 33 mph 28° @ 0705 AM 51 39 92 47 30.28" 0 0 0   0
Fort Chadbourne  09:10 PM 47 35 62% NE910 29 mph 6° @ 1118 AM 55 45 91 49 30.27" 0 0 0   0
Fort Lancaster  09:10 PM 51 37 59% N00 23 mph 8° @ 0806 AM 68 51 80 40 30.25" 0 0 0   0
Fort Lewis CO  09:10 PM 27 18 69% N88 21 mph 274° @ 1105 AM 43 10 76 20 30.15" 0 0 0 19 0
Fort McKavett  09:10 PM 50 36 58% N910 23 mph 0° @ 1048 AM 66 48 96 55 30.24" 0 0 0   0
Friona 2NE  09:10 PM 39 28 66% E44 24 mph 39° @ 0500 AM 44 35 94 51 30.30" 0 0 0   0
Fritch 1WNW  09:10 PM 35 19 51% E68 26 mph 28° @ 0646 AM 44 35 72 37 30.34" 0 0 0   0
Gail 2ESE  09:10 PM 42 30 63% NE45 30 mph 38° @ 0925 AM 54 40 92 42 30.28" 0 0 0   0
Goodlett 3W  09:10 PM 37 25 61% NE68 28 mph 20° @ 0555 AM 55 37 86 34 30.34" 0 0 0   0
Goodnight  09:10 PM 31 21 68% NE78 25 mph 15° @ 0545 AM 49 30 81 38 30.34" 0 0 0 24 0
Graham 5SSW  09:10 PM 43 30 60% NE810 37 mph 32° @ 0550 AM 51 38 87 43 30.29" 0 0 0   0
Guadalupe Mtns Natl Park  09:10 PM 39 30 71% NE810 51 mph 273° @ 0141 AM 59 35 91 26 30.25" 0 0 0   0
Guthrie 10WSW  09:10 PM 41 28 61% NE710 33 mph 15° @ 0640 AM 56 41 88 36 30.31" 0 0 0   0
Hackberry 2SSE  09:10 PM 38 27 63% NE910 28 mph 21° @ 0936 AM 56 38 94 37 30.33" 0 0 0   0
Happy 1E  09:10 PM 32 23 69% NE67 23 mph 34° @ 0825 AM 45 31 89 42 30.32" 0 0 0 26 0
Hart 3N  09:10 PM 37 25 64% NE1113 26 mph 33° @ 0920 AM 45 32 97 47 30.30" 0 0 0   0
Haskell 1NW  09:10 PM 44 35 70% NE1012 33 mph 16° @ 1020 AM 55 43 95 48 30.30" 0 0 0   0
Hefner 1SW  09:10 PM 45 33 63% NE1214 30 mph 3° @ 0651 AM 55 43 96 45 30.32" 0 0 0   0
Hereford 2NW  09:10 PM 37 22 55% E912 23 mph 45° @ 0840 AM 43 35 75 47 30.30" 0 0 0   0
Hobbs NM 5NW  09:10 PM 41 29 63% E57 28 mph 46° @ 0758 AM 53 37 98 40 30.29" 0 0 0   0
Jayton 1SSE  09:10 PM 44 32 64% NE810 30 mph 26° @ 0900 AM 54 43 92 42 30.30" 0 0 0   0
Junction 1SSW  09:10 PM 45 44 96% NW01 20 mph 5° @ 0121 PM 63 44 100 64 30.24" 0 0.27 0   0
Kent 9E  09:10 PM 43 34 70% E57 18 mph 353° @ 0634 AM 64 42 89 20 30.25" 0 0 0   0
Knox City 3NW  09:10 PM 46 33 61% NE911 30 mph 23° @ 0750 AM 55 44 98 47 30.32" 0 0 0   0
Lake Alan Henry 1NW  09:10 PM 42 32 65% NE66 30 mph 46° @ 0622 AM 54 41 94 42 30.29" 0 0 0   0
Lake McClellan 2NW  09:10 PM 32 19 58% NE77 25 mph 23° @ 0332 PM 48 32 82 34 30.34" 0 0 0 26 0
Lamesa 2SE  09:10 PM 42 31 65% NE57 28 mph 46° @ 1000 AM 51 39 91 47 30.28" 0 0 0   0
Lesley 2S  09:10 PM 40 21 47% NE1112 26 mph 33° @ 0206 AM 56 37 77 29 30.34" 0 0 0   0
Levelland 4S  09:10 PM 38 27 65% E88 29 mph 37° @ 0850 AM 52 34 96 41 30.29" 0 0 0   0
Lomax 1SSE  09:10 PM 45 35 67% NE810 33 mph 34° @ 0901 AM 52 44 92 46 30.27" 0 0 0   0
Lubbock 3WNW TTU  09:10 PM 42 25 52% E811 27 mph 36° @ 0930 AM 53 37 89 39 30.29" 0 0 0   0
McCamey 1SSW  09:10 PM 49 35 59% NE45 32 mph 31° @ 0912 AM 61 48 87 35 30.26" 0 0 0   0
McLean 1E  09:10 PM 36 19 51% NE79 24 mph 34° @ 1220 PM 47 34 82 36 30.32" 0 0 0   0
Memphis 1NE  09:10 PM 34 22 63% N56 25 mph 8° @ 0905 AM 53 34 74 31 30.35" 0 0 0 29 0
Menard 2NW   09:10 PM 50 35 56% N1214 22 mph 12° @ 0104 PM 62 50 100 55 30.25" 0 0 0   0
Mertzon 3NNE  09:10 PM 47 36 66% NE67 29 mph 3° @ 0952 AM 56 47 96 50 30.26" 0 0 0   0
Morton 1ENE  09:10 PM 36 26 68% NE89 25 mph 40° @ 1035 AM 51 35 100 39 30.28" 0 0 0   0
Muleshoe 2SSW  09:10 PM 31 26 81% E34 25 mph 45° @ 0740 AM 46 31 97 47 30.30" 0 0 0   0
New Home  09:10 PM 39 28 64% E68 27 mph 53° @ 0935 AM 53 35 93 40 30.30" 0 0 0   0
Northfield 1S  09:10 PM 39 21 48% E57 22 mph 24° @ 0535 AM 56 39 96 28 30.34" 0 0 0   0
O'Donnell 1N  09:10 PM 40 28 64% E67 36 mph 44° @ 0905 AM 52 36 90 42 30.28" 0 0 0   0
Odell 4ENE  09:10 PM 37 27 66% NE88 29 mph 16° @ 0419 AM 56 37 94 39 30.35" 0 0 0   0
Olton 6S  09:10 PM 32 24 73% NE811 29 mph 41° @ 0925 AM 49 29 98 41 30.31" 0 0 0 25 0
Paducah 10SW  09:10 PM 40 26 58% NE912 30 mph 26° @ 0730 AM 55 40 90 36 30.32" 0 0 0   0
Palo Duro 4E (JA Ranch)  09:10 PM 30 21 69% N88 25 mph 14° @ 0530 AM 53 30 75 31 30.35" 0 0 0 22 0
Palo Duro Canyon SP Floor  09:10 PM 38 20 49% S46 19 mph 344° @ 0109 PM 50 36 72 33 30.34" 0 0 0   0
Palo Duro Canyon State Park Rim  09:10 PM 34 19 52% NE00 27 mph 25° @ 0418 AM 47 34 72 36 30.33" 0 0 0   0
Palo Duro Reservoir 1NW   09:10 PM 35 19 50% E44 27 mph 32° @ 0147 AM 43 32 75 35 30.33" 0 0 0   0
Pampa 2E  09:10 PM 28 18 65% NE45 26 mph 26° @ 0255 AM 44 28 81 39 30.33" 0 0 0   0
Panhandle 1SSW  09:10 PM 33 24 68% NE56 24 mph 24° @ 0722 AM 45 27 79 38 30.33" 0 0 0 28 0
Plains 3N  09:10 PM 40 29 65% E911 30 mph 42° @ 0955 AM 51 34 98 44 30.27" 0 0 0   0
Plainview 1S  09:10 PM 37 23 59% NE911 27 mph 34° @ 0915 AM 50 33 94 40 30.30" 0 0 0   0
Post 1NE  09:10 PM 42 28 59% NE78 28 mph 29° @ 0635 AM 54 40 93 35 30.29" 0 0 0   0
Ralls 1SE  09:10 PM 35 23 62% NE88 30 mph 36° @ 0920 AM 52 35 90 39 30.31" 0 0 0 29 0
Reese Center  09:10 PM 38 25 61% NE89 27 mph 47° @ 1015 AM 52 33 95 40 30.29" 0 0 0   0
Roaring Springs 3N  09:10 PM 38 27 63% NE910 27 mph 19° @ 0920 AM 52 38 91 41 30.32" 0 0 0   0
Romero 11SSW  09:10 PM 37 21 51% E1214 27 mph 50° @ 0340 AM 46 35 77 39 30.30" 0 0 0   0
Rotan 5W  09:10 PM 44 34 66% NE810 38 mph 29° @ 0955 AM 54 43 91 45 30.30" 0 0 0   0
San Angelo 7NW  09:10 PM 48 33 57% NE35 27 mph 351° @ 1025 AM 54 47 81 43 30.27" 0 0 0   0
Seagraves 1SW  09:10 PM 40 29 65% E57 28 mph 49° @ 0955 AM 51 37 95 45 30.27" 0 0 0   0
Segovia 7SSW  09:10 PM 43 42 94% NE67 27 mph 16° @ 0622 PM 64 42 97 72 30.22" 0 0.52 0   0
Seminole 2NNE  09:10 PM 40 29 65% E67 32 mph 42° @ 0925 AM 50 38 93 44 30.27" 0 0 0   0
Seymour 3NW  09:10 PM 44 33 67% N1114 29 mph 19° @ 0145 PM 56 44 98 43 30.32" 0 0 0   0
Sierra Blanca 1SSE  09:10 PM 43 32 64% SE1416 23 mph 122° @ 0204 PM 62 43 64 24 30.19" 0 0 0   0
Silverton 7ESE  09:10 PM 32 21 62% NE1011 26 mph 25° @ 0910 AM 49 32 93 36 30.31" 0 0 0 24 0
Slaton 2NE  09:10 PM 41 26 56% NE1012 28 mph 28° @ 0710 AM 53 37 94 40 30.29" 0 0 0   0
Smyer  09:10 PM 37 26 63% NE89 29 mph 33° @ 0920 AM 53 34 97 38 30.29" 0 0 0   0
Snyder 3E  09:10 PM 44 33 66% NE811 36 mph 20° @ 0725 AM 53 41 96 50 30.28" 0 0 0   0
Snyder 3SSW  09:10 PM 43 32 64% NE88 37 mph 32° @ 0951 AM 54 42 96 46 30.29" 0 0 0   0
South Plains 3ENE  09:10 PM 37 21 54% NE810 27 mph 33° @ 0959 AM 51 35 84 36 30.32" 0 0 0   0
Spur 1W  09:10 PM 41 29 64% NE68 30 mph 38° @ 1020 AM 54 41 84 38 30.30" 0 0 0   0
St. Lawrence 5SW  09:10 PM 45 34 65% NE810 30 mph 22° @ 1105 AM 53 43 95 45 30.26" 0 0 0   0
Stamford 5ESE  09:10 PM 45 36 71% NE1011 30 mph 23° @ 0956 AM 56 44 96 47 30.30" 0 0 0   0
Sterling City 4WSW  09:10 PM 47 33 58% NE912 28 mph 347° @ 1111 AM 54 42 100 45 30.27" 0 0 0   0
Stinnett 1NNW  09:10 PM 31 17 56% NE34 26 mph 36° @ 0307 AM 43 31 77 40 30.34" 0 0 0   0
Stratford 4WNW  09:10 PM 35 20 53% E56 24 mph 35° @ 0222 AM 42 31 78 40 30.33" 0 0 0   0
Sundown 8WSW  09:10 PM 36 27 69% E88 28 mph 38° @ 0940 AM 53 34 99 38 30.28" 0 0 0   0
Sweetwater 11SW   09:10 PM 43 33 67% NE78 38 mph 32° @ 1204 PM 51 42 97 51 30.29" 0 0 0   0
Tahoka 3NNE  09:10 PM 37 28 68% E88 29 mph 41° @ 1011 AM 53 36 92 38 30.28" 0 0 0   0
Tarzan 2WNW  09:10 PM 44 33 64% NE1012 32 mph 37° @ 0730 AM 53 41 94 46 30.27" 0 0 0   0
Tatum NM 2SW  09:10 PM 35 28 73% E67 30 mph 46° @ 0905 AM 52 35 95 41 30.27" 0 0 0   0
Throckmorton 1SW  09:10 PM 46 33 60% NE79 30 mph 20° @ 0928 AM 58 44 97 44 30.30" 0 0 0   0
Truscott 2SE  09:10 PM 43 29 56% NE912 32 mph 16° @ 0700 AM 56 43 95 40 30.32" 0 0 0   0
Tulia 2ENE  09:10 PM 32 22 68% NE79 23 mph 30° @ 0905 AM 47 32 89 41 30.31" 0 0 0 25 0
Turkey 2WSW  09:10 PM 37 23 57% N78 26 mph 359° @ 0135 PM 53 37 90 33 30.33" 0 0 0   0
Umbarger 3NNE  09:10 PM 32 23 69% E56 23 mph 43° @ 0412 AM 45 30 76 44 30.32" 0 0 0   0
Van Horn 3ENE  09:10 PM 44 33 63% NE810 26 mph 33° @ 1042 AM 60 44 72 28 30.23" 0 0 0   0
Vigo Park  09:10 PM 32 21 63% NE1011 23 mph 30° @ 0917 AM 47 31 94 40 30.32" 0 0 0 24 0
Wall 2E  09:10 PM 47 38 70% NE67 36 mph 13° @ 1000 AM 53 47 88 49 30.28" 0 0 0   0
Weinert 2NNE  09:10 PM 45 32 60% NE811 32 mph 21° @ 0750 AM 55 44 93 42 30.31" 0 0 0   0
Welch  09:10 PM 42 30 61% E67 31 mph 48° @ 0903 AM 52 37 100 43 30.29" 0 0 0   0
White River Lake 6NW  09:10 PM 42 27 54% NE1215 32 mph 18° @ 0440 AM 54 38 81 38 30.30" 0 0 0   0
Wolfforth 6SSW  09:10 PM 38 27 65% E78 31 mph 38° @ 0725 AM 53 37 94 40 30.29" 0 0 0   0

West Texas Mesonet Home   Site Map/Menu  NWS Lubbock Soil Data  Daily Summary Page  24hr Precip  72hr Precip  Google Plot